Terminal Aerodrome Forecast
Issued by NWS Charleston, SC

Home | Current Version | Previous Version | Text Only | Print | Product List | Glossary On
Versions: 1 2 3 4 5 6 7 8 9 10 11 12 13 14 15 16 17
000
FTUS42 KCHS 250521
TAFSAV
TAF
KSAV 250521Z 2506/2606 26007KT P6SM SCT090
     FM251500 27010G16KT P6SM SCT050
     FM260000 24003KT P6SM FEW060=

USA.gov is the U.S. government's official web portal to all federal, state and local government web resources and services.